Flight Track Log - Related Links

Times and Time Zones

All times are in EDT time to prevent confusion due to time zone crossing. See the JIA2385 flight status page for this flight to view local times or setup timezone preferences in your user account.

Time Position Orientation Groundspeed Altitude Reporting Facility
EDT Latitude Longitude Course Direction KTS MPH feet Rate Location/Type
Tue 08:58:09 AM 38.8000 -77.0000 180° South 207 238 2,700  Level Potomac TRACON
Tue 08:59:03 AM 38.7500 -76.9500 142° Southeast 269 310 4,400 2,368 Climbing Potomac TRACON
Tue 09:00:00 AM 38.5731 -76.7398 142° Southeast  Level FlightAware Approximate
Tue 09:00:03 AM 38.7667 -76.8667 76° East 292 336 7,200  Level Potomac TRACON
Tue 09:00:47 AM 38.8031 -76.7903 59° Northeast 297 342 8,700 2,135 Climbing Washington Center
Tue 09:01:00 AM 38.4890 -76.7078 171° South  Level FlightAware Approximate
Tue 09:01:47 AM 38.7519 -76.7069 128° Southeast 308 354 10,900  Level Washington Center
Tue 09:02:00 AM 38.3985 -76.7000 180° South  Level FlightAware Approximate
Tue 09:02:48 AM 38.6808 -76.7114 183° South 341 392 13,000  Level Washington Center
Tue 09:03:00 AM 38.3206 -76.6833 180° South  Level FlightAware Approximate
Tue 09:03:49 AM 38.5975 -76.7233 186° South 335 386 14,900  Level Washington Center
Tue 09:04:49 AM 38.5119 -76.7219 179° South 319 367 16,900 1,525 Climbing Washington Center
Tue 09:05:47 AM 38.4225 -76.7128 175° South 314 361 17,900 814 Climbing Washington Center
Tue 09:06:47 AM 38.3286 -76.7006 174° South 327 376 18,500 545 Climbing Washington Center
Tue 09:07:48 AM 38.2411 -76.6836 171° South 345 397 19,000 492 Climbing Washington Center
Tue 09:08:49 AM 38.1456 -76.6689 173° South 351 404 19,500 496 Climbing Washington Center
Tue 09:09:49 AM 38.0456 -76.6569 175° South 356 410 20,000 600 Climbing Washington Center
Tue 09:10:49 AM 37.9392 -76.6422 174° South 369 425 20,700 763 Climbing Washington Center
Tue 09:11:47 AM 37.8331 -76.6303 175° South 379 436 21,500 814 Climbing Washington Center
Tue 09:12:47 AM 37.7247 -76.6131 173° South 386 444 22,300 793 Climbing Washington Center
Tue 09:13:48 AM 37.6164 -76.6011 175° South 386 444 23,100 744 Climbing Washington Center
Tue 09:14:48 AM 37.5081 -76.5839 173° South 386 444 23,800 694 Climbing Washington Center
Tue 09:15:49 AM 37.3975 -76.5694 174° South 391 450 24,500 694 Climbing Washington Center
Tue 09:16:49 AM 37.2850 -76.5550 174° South 397 457 25,200 763 Climbing Washington Center
Tue 09:17:47 AM 37.1722 -76.5797 190° South 383 441 26,000 706 Climbing Washington Center
Tue 09:18:48 AM 37.0900 -76.6647 220° Southwest 376 433 26,600 545 Climbing Washington Center
Tue 09:19:48 AM 37.0100 -76.7494 220° Southwest 376 433 27,100 496 Climbing Washington Center
Tue 09:20:49 AM 36.9278 -76.8286 218° Southwest 376 433 27,600 496 Climbing Washington Center
Tue 09:21:49 AM 36.8478 -76.9103 219° Southwest 376 433 28,100 508 Climbing Washington Center
Tue 09:22:47 AM 36.7656 -76.9894 218° Southwest 376 433 28,600 504 Climbing Washington Center
Tue 09:23:48 AM 36.6853 -77.0708 219° Southwest 376 433 29,100 496 Climbing Washington Center
Tue 09:24:48 AM 36.6028 -77.1494 217° Southwest 376 433 29,600 496 Climbing Washington Center
Tue 09:25:49 AM 36.5267 -77.2231 218° Southwest 376 433 30,100 504 Climbing Washington Center
Tue 09:26:47 AM 36.4464 -77.3014 218° Southwest 376 433 30,600 508 Climbing Washington Center
Tue 09:27:47 AM 36.3639 -77.3794 217° Southwest 376 433 31,100 496 Climbing Washington Center
Tue 09:28:48 AM 36.2833 -77.4600 219° Southwest 376 433 31,600 446 Climbing Washington Center
Tue 09:29:48 AM 36.2050 -77.5381 219° Southwest 376 433 32,000 198 Climbing Washington Center
Tue 09:30:49 AM 36.1222 -77.6158 217° Southwest 376 433 32,000  Level Washington Center
Tue 09:31:49 AM 36.0394 -77.6933 217° Southwest 376 433 32,000  Level Washington Center
Tue 09:32:47 AM 35.9547 -77.7731 217° Southwest 376 433 32,000  Level Washington Center
Tue 09:33:49 AM 35.8719 -77.8528 218° Southwest 376 433 32,000  Level Washington Center
Tue 09:34:47 AM 35.7911 -77.9272 217° Southwest 371 427 32,000  Level Washington Center
Tue 09:35:48 AM 35.7061 -78.0092 218° Southwest 376 433 32,000  Level Washington Center
Tue 09:36:49 AM 35.6231 -78.0833 216° Southwest 376 433 32,000  Level Washington Center
Tue 09:37:49 AM 35.5381 -78.1650 218° Southwest 376 433 32,000  Level Washington Center
Tue 09:38:47 AM 35.4464 -78.2461 216° Southwest 376 433 32,000  Level Washington Center
Tue 09:39:48 AM 35.3611 -78.3247 217° Southwest 376 433 32,000  Level Washington Center
Tue 09:40:49 AM 35.2781 -78.4061 219° Southwest 376 433 32,000  Level Washington Center
Tue 09:41:47 AM 35.1925 -78.4844 217° Southwest 376 433 32,000  Level Washington Center
Tue 09:42:48 AM 35.1094 -78.5625 218° Southwest 381 438 32,000  Level Washington Center
Tue 09:43:49 AM 35.0261 -78.6406 217° Southwest 376 433 32,000  Level Washington Center
Tue 09:44:47 AM 34.9425 -78.7211 218° Southwest 376 433 32,000  Level Washington Center
Tue 09:45:48 AM 34.8569 -78.7989 217° Southwest 376 433 32,000  Level Washington Center
Tue 09:48:08 AM 34.6642 -78.9725 217° Southwest 381 438 32,000  Level Jacksonville Center
Tue 09:49:08 AM 34.5769 -79.0497 216° Southwest 386 444 32,000  Level Jacksonville Center
Tue 09:50:08 AM 34.4858 -79.1419 220° Southwest 386 444 32,000  Level Jacksonville Center
Tue 09:51:08 AM 34.3983 -79.2186 216° Southwest 393 452 32,000  Level Jacksonville Center
Tue 09:52:08 AM 34.3108 -79.2978 217° Southwest 393 452 32,000 -250 Level Jacksonville Center
Tue 09:53:08 AM 34.2236 -79.3767 217° Southwest 393 452 31,500 -800 Descending Jacksonville Center
Tue 09:54:08 AM 34.1442 -79.4478 217° Southwest 393 452 30,400 -1,050 Descending Jacksonville Center
Tue 09:55:08 AM 34.0586 -79.5236 216° Southwest 387 445 29,400 -1,000 Descending Jacksonville Center
Tue 09:56:08 AM 33.9728 -79.5997 216° Southwest 382 440 28,400 -1,000 Descending Jacksonville Center
Tue 09:57:08 AM 33.8872 -79.6728 215° Southwest 382 440 27,400 -1,000 Descending Jacksonville Center
Tue 09:58:08 AM 33.8036 -79.7508 218° Southwest 382 440 26,400 -1,000 Descending Jacksonville Center
Tue 09:59:08 AM 33.7219 -79.8239 217° Southwest 382 440 25,400 -1,000 Descending Jacksonville Center
Tue 10:00:08 AM 33.6422 -79.8939 216° Southwest 377 434 24,400 -700 Descending Jacksonville Center
Tue 10:01:08 AM 33.5644 -79.9639 217° Southwest 372 428 24,000 -200 Descending Jacksonville Center
Tue 10:02:08 AM 33.4867 -80.0311 216° Southwest 359 413 24,000  Level Jacksonville Center
Tue 10:03:08 AM 33.4131 -80.0958 216° Southwest 353 406 24,000  Level Jacksonville Center
Tue 10:04:08 AM 33.3372 -80.1628 216° Southwest 347 399 24,000  Level Jacksonville Center
Tue 10:05:08 AM 33.2636 -80.2269 216° Southwest 347 399 24,000  Level Jacksonville Center
Tue 10:06:08 AM 33.1897 -80.2914 216° Southwest 342 394 24,000 -550 Level Jacksonville Center
Tue 10:07:08 AM 33.1119 -80.3581 216° Southwest 341 392 22,900 -1,150 Descending Jacksonville Center
Tue 10:08:08 AM 33.0231 -80.4125 207° Southwest 355 409 21,700 -1,200 Descending Jacksonville Center
Tue 10:09:08 AM 32.9406 -80.4594 206° Southwest 361 415 20,500 -1,600 Descending Jacksonville Center
Tue 10:10:08 AM 32.8644 -80.5208 214° Southwest 356 410 18,500 -2,050 Descending Jacksonville Center
Tue 10:11:08 AM 32.7947 -80.5844 217° Southwest 337 388 16,400 -2,050 Descending Jacksonville Center
Tue 10:12:08 AM 32.7311 -80.6478 220° Southwest 325 374 14,400 -2,000 Descending Jacksonville Center
Tue 10:13:08 AM 32.6675 -80.7086 219° Southwest 312 359 12,400 -1,950 Descending Jacksonville Center
Tue 10:14:08 AM 32.6058 -80.7669 219° Southwest 295 339 10,500 -1,850 Descending Jacksonville Center
Tue 10:15:08 AM 32.5400 -80.8275 218° Southwest 283 326 8,700 -1,250 Descending Jacksonville Center
Tue 10:16:08 AM 32.4781 -80.8658 208° Southwest 272 313 8,000 -500 Descending Jacksonville Center
Tue 10:17:08 AM 32.4036 -80.9044 204° Southwest 266 306 7,700 -900 Descending Jacksonville Center
Tue 10:18:08 AM 32.3325 -80.9011 178° South 274 315 6,200 -1,500 Descending Jacksonville Center
Tue 10:19:08 AM 32.2617 -80.9100 186° South 274 315 4,700 -1,750 Descending Jacksonville Center
Tue 10:20:08 AM 32.1933 -80.9483 205° Southwest 248 285 2,700 -2,000 Descending Jacksonville Center

Login

Don't have an account? Register now (free) for customized features, flight alerts, and more!